Center, Kentucky
Current Conditions -  °F | °C
As of 8:15 AM on Sunday 25 Jan 2015 (Local Time) from KGLW Reporting Station
Clear Clear  
Wind Chill: 35°   Ceiling: Unl
Heat Index: 39°   Visibility: 10mi
Dew Point: 32°   Wind: 6mph
Humidity: 76%   Direction: 190°S
Pressure: 29.76"   Gusts: NA
Location:  37.14°N, 85.69°W
Report Text: KGLW 251415Z AUTO 19005KT 10SM CLR 04/00 A2976 RMK AO2 T00380000
Loading
Personal Weather Stations






























Interactive Weather Map New forecast layout! Learn more

10-Day Weather Forecast

Advertisements
Track Severe Weather on mobile